sensor_id;sensor_type;location;lat;lon;timestamp;P1;durP1;ratioP1;P2;durP2;ratioP2
76733;SDS011;65660;53.288;14.666;2024-03-29T00:03:11;6.43;;;5.83;;
76733;SDS011;65660;53.288;14.666;2024-03-29T00:08:12;6.33;;;5.73;;
76733;SDS011;65660;53.288;14.666;2024-03-29T00:13:12;6.53;;;5.93;;
76733;SDS011;65660;53.288;14.666;2024-03-29T00:18:13;6.20;;;5.70;;
76733;SDS011;65660;53.288;14.666;2024-03-29T00:23:14;6.33;;;5.83;;
76733;SDS011;65660;53.288;14.666;2024-03-29T00:28:15;6.90;;;5.80;;
76733;SDS011;65660;53.288;14.666;2024-03-29T00:33:16;6.00;;;5.50;;
76733;SDS011;65660;53.288;14.666;2024-03-29T00:38:16;5.63;;;5.13;;
76733;SDS011;65660;53.288;14.666;2024-03-29T00:43:17;5.83;;;5.33;;
76733;SDS011;65660;53.288;14.666;2024-03-29T00:48:18;5.90;;;5.50;;
76733;SDS011;65660;53.288;14.666;2024-03-29T00:53:18;6.50;;;5.67;;
76733;SDS011;65660;53.288;14.666;2024-03-29T00:58:19;6.43;;;5.93;;
76733;SDS011;65660;53.288;14.666;2024-03-29T01:03:19;5.90;;;5.50;;
76733;SDS011;65660;53.288;14.666;2024-03-29T01:08:20;5.80;;;5.30;;
76733;SDS011;65660;53.288;14.666;2024-03-29T01:13:21;6.20;;;5.60;;
76733;SDS011;65660;53.288;14.666;2024-03-29T01:18:21;5.97;;;5.50;;
76733;SDS011;65660;53.288;14.666;2024-03-29T01:23:22;6.40;;;5.80;;
76733;SDS011;65660;53.288;14.666;2024-03-29T01:28:22;7.43;;;6.67;;
76733;SDS011;65660;53.288;14.666;2024-03-29T01:33:23;7.23;;;6.53;;
76733;SDS011;65660;53.288;14.666;2024-03-29T01:38:23;7.27;;;6.60;;
76733;SDS011;65660;53.288;14.666;2024-03-29T01:43:24;6.33;;;5.83;;
76733;SDS011;65660;53.288;14.666;2024-03-29T01:48:25;7.03;;;4.90;;
76733;SDS011;65660;53.288;14.666;2024-03-29T01:53:26;5.00;;;4.50;;
76733;SDS011;65660;53.288;14.666;2024-03-29T01:58:27;5.03;;;4.70;;
76733;SDS011;65660;53.288;14.666;2024-03-29T02:03:28;5.30;;;4.83;;
76733;SDS011;65660;53.288;14.666;2024-03-29T02:08:29;5.13;;;4.73;;
76733;SDS011;65660;53.288;14.666;2024-03-29T02:13:29;5.00;;;4.60;;
76733;SDS011;65660;53.288;14.666;2024-03-29T02:18:30;4.80;;;4.40;;
76733;SDS011;65660;53.288;14.666;2024-03-29T02:23:32;4.87;;;4.47;;
76733;SDS011;65660;53.288;14.666;2024-03-29T02:28:33;4.70;;;4.30;;
76733;SDS011;65660;53.288;14.666;2024-03-29T02:33:33;6.50;;;4.10;;
76733;SDS011;65660;53.288;14.666;2024-03-29T02:38:34;4.27;;;3.97;;
76733;SDS011;65660;53.288;14.666;2024-03-29T02:43:34;4.90;;;4.50;;
76733;SDS011;65660;53.288;14.666;2024-03-29T02:48:35;4.50;;;4.20;;
76733;SDS011;65660;53.288;14.666;2024-03-29T02:53:36;4.60;;;4.20;;
76733;SDS011;65660;53.288;14.666;2024-03-29T02:58:36;4.60;;;4.20;;
76733;SDS011;65660;53.288;14.666;2024-03-29T03:03:37;4.43;;;4.03;;
76733;SDS011;65660;53.288;14.666;2024-03-29T03:08:38;4.30;;;4.00;;
76733;SDS011;65660;53.288;14.666;2024-03-29T03:13:38;3.77;;;3.57;;
76733;SDS011;65660;53.288;14.666;2024-03-29T03:18:39;4.50;;;4.20;;
76733;SDS011;65660;53.288;14.666;2024-03-29T03:23:39;4.20;;;3.80;;
76733;SDS011;65660;53.288;14.666;2024-03-29T03:28:40;4.57;;;4.27;;
76733;SDS011;65660;53.288;14.666;2024-03-29T03:33:40;4.70;;;4.30;;
76733;SDS011;65660;53.288;14.666;2024-03-29T03:38:41;4.63;;;4.17;;
76733;SDS011;65660;53.288;14.666;2024-03-29T03:43:42;4.60;;;4.20;;
76733;SDS011;65660;53.288;14.666;2024-03-29T03:48:42;4.73;;;4.27;;
76733;SDS011;65660;53.288;14.666;2024-03-29T03:53:43;4.67;;;4.27;;
76733;SDS011;65660;53.288;14.666;2024-03-29T03:58:44;5.77;;;5.47;;
76733;SDS011;65660;53.288;14.666;2024-03-29T04:03:45;5.00;;;4.60;;
76733;SDS011;65660;53.288;14.666;2024-03-29T04:08:46;4.70;;;4.30;;
76733;SDS011;65660;53.288;14.666;2024-03-29T04:13:47;4.70;;;4.30;;
76733;SDS011;65660;53.288;14.666;2024-03-29T04:18:47;5.40;;;4.93;;
76733;SDS011;65660;53.288;14.666;2024-03-29T04:23:48;7.80;;;7.30;;
76733;SDS011;65660;53.288;14.666;2024-03-29T04:28:48;4.80;;;4.50;;
76733;SDS011;65660;53.288;14.666;2024-03-29T04:33:49;4.30;;;4.00;;
76733;SDS011;65660;53.288;14.666;2024-03-29T04:38:49;4.10;;;3.80;;
76733;SDS011;65660;53.288;14.666;2024-03-29T04:43:50;6.83;;;6.30;;
76733;SDS011;65660;53.288;14.666;2024-03-29T04:48:51;6.90;;;6.50;;
76733;SDS011;65660;53.288;14.666;2024-03-29T04:53:51;4.30;;;4.00;;
76733;SDS011;65660;53.288;14.666;2024-03-29T04:58:52;4.40;;;4.10;;
76733;SDS011;65660;53.288;14.666;2024-03-29T05:03:52;4.30;;;4.10;;
76733;SDS011;65660;53.288;14.666;2024-03-29T05:08:53;6.07;;;5.67;;
76733;SDS011;65660;53.288;14.666;2024-03-29T05:13:53;6.40;;;6.00;;
76733;SDS011;65660;53.288;14.666;2024-03-29T05:18:54;4.63;;;4.23;;
76733;SDS011;65660;53.288;14.666;2024-03-29T05:23:54;4.47;;;4.17;;
76733;SDS011;65660;53.288;14.666;2024-03-29T05:28:55;5.93;;;4.50;;
76733;SDS011;65660;53.288;14.666;2024-03-29T05:33:56;4.70;;;4.30;;
76733;SDS011;65660;53.288;14.666;2024-03-29T05:38:57;4.60;;;4.00;;
76733;SDS011;65660;53.288;14.666;2024-03-29T05:43:58;4.77;;;4.10;;
76733;SDS011;65660;53.288;14.666;2024-03-29T05:48:58;4.00;;;3.70;;
76733;SDS011;65660;53.288;14.666;2024-03-29T05:53:59;4.10;;;3.70;;
76733;SDS011;65660;53.288;14.666;2024-03-29T05:59:00;5.83;;;5.33;;
76733;SDS011;65660;53.288;14.666;2024-03-29T06:04:01;7.73;;;7.33;;
76733;SDS011;65660;53.288;14.666;2024-03-29T06:09:01;3.93;;;3.73;;
76733;SDS011;65660;53.288;14.666;2024-03-29T06:14:02;5.60;;;5.20;;
76733;SDS011;65660;53.288;14.666;2024-03-29T06:19:03;7.67;;;7.17;;
76733;SDS011;65660;53.288;14.666;2024-03-29T06:24:05;4.23;;;3.50;;
76733;SDS011;65660;53.288;14.666;2024-03-29T06:29:06;5.40;;;5.00;;
76733;SDS011;65660;53.288;14.666;2024-03-29T06:34:06;4.00;;;3.70;;
76733;SDS011;65660;53.288;14.666;2024-03-29T06:39:07;4.20;;;3.90;;
76733;SDS011;65660;53.288;14.666;2024-03-29T06:44:08;3.90;;;3.60;;
76733;SDS011;65660;53.288;14.666;2024-03-29T06:49:08;4.20;;;3.80;;
76733;SDS011;65660;53.288;14.666;2024-03-29T06:54:09;5.23;;;4.83;;
76733;SDS011;65660;53.288;14.666;2024-03-29T06:59:10;3.90;;;3.60;;
76733;SDS011;65660;53.288;14.666;2024-03-29T07:04:10;4.53;;;3.53;;
76733;SDS011;65660;53.288;14.666;2024-03-29T07:09:11;4.17;;;3.70;;
76733;SDS011;65660;53.288;14.666;2024-03-29T07:14:11;4.50;;;4.20;;
76733;SDS011;65660;53.288;14.666;2024-03-29T07:19:12;4.93;;;4.43;;
76733;SDS011;65660;53.288;14.666;2024-03-29T07:24:13;6.20;;;4.30;;
76733;SDS011;65660;53.288;14.666;2024-03-29T07:29:13;4.63;;;4.23;;
76733;SDS011;65660;53.288;14.666;2024-03-29T07:34:14;4.93;;;4.50;;
76733;SDS011;65660;53.288;14.666;2024-03-29T07:39:14;5.30;;;4.70;;
76733;SDS011;65660;53.288;14.666;2024-03-29T07:44:15;5.47;;;4.77;;
76733;SDS011;65660;53.288;14.666;2024-03-29T07:49:15;5.60;;;5.20;;
76733;SDS011;65660;53.288;14.666;2024-03-29T07:54:16;4.90;;;4.50;;
76733;SDS011;65660;53.288;14.666;2024-03-29T07:59:16;4.50;;;4.10;;
76733;SDS011;65660;53.288;14.666;2024-03-29T08:04:17;5.10;;;4.60;;
76733;SDS011;65660;53.288;14.666;2024-03-29T08:09:18;6.83;;;4.60;;
76733;SDS011;65660;53.288;14.666;2024-03-29T08:14:18;4.40;;;4.07;;
76733;SDS011;65660;53.288;14.666;2024-03-29T08:19:19;5.03;;;4.63;;
76733;SDS011;65660;53.288;14.666;2024-03-29T08:24:20;5.27;;;4.00;;
76733;SDS011;65660;53.288;14.666;2024-03-29T08:29:20;4.90;;;4.30;;
76733;SDS011;65660;53.288;14.666;2024-03-29T08:34:21;4.80;;;4.40;;
76733;SDS011;65660;53.288;14.666;2024-03-29T08:39:22;5.00;;;4.57;;
76733;SDS011;65660;53.288;14.666;2024-03-29T08:44:23;4.97;;;4.60;;
76733;SDS011;65660;53.288;14.666;2024-03-29T08:49:23;4.67;;;4.27;;
76733;SDS011;65660;53.288;14.666;2024-03-29T08:54:24;4.60;;;4.30;;
76733;SDS011;65660;53.288;14.666;2024-03-29T08:59:24;5.40;;;4.90;;
76733;SDS011;65660;53.288;14.666;2024-03-29T09:04:25;4.80;;;4.37;;
76733;SDS011;65660;53.288;14.666;2024-03-29T09:09:25;4.80;;;4.40;;
76733;SDS011;65660;53.288;14.666;2024-03-29T09:14:26;4.50;;;4.10;;
76733;SDS011;65660;53.288;14.666;2024-03-29T09:19:27;6.23;;;5.73;;
76733;SDS011;65660;53.288;14.666;2024-03-29T09:24:28;7.30;;;6.73;;
76733;SDS011;65660;53.288;14.666;2024-03-29T09:29:29;5.30;;;4.80;;
76733;SDS011;65660;53.288;14.666;2024-03-29T09:34:29;5.87;;;5.37;;
76733;SDS011;65660;53.288;14.666;2024-03-29T09:39:30;5.40;;;5.10;;
76733;SDS011;65660;53.288;14.666;2024-03-29T09:44:31;6.30;;;6.00;;
76733;SDS011;65660;53.288;14.666;2024-03-29T09:49:33;7.68;;;7.10;;
76733;SDS011;65660;53.288;14.666;2024-03-29T09:54:34;7.88;;;7.43;;
76733;SDS011;65660;53.288;14.666;2024-03-29T09:59:35;8.20;;;7.65;;
76733;SDS011;65660;53.288;14.666;2024-03-29T10:04:35;6.20;;;5.70;;
76733;SDS011;65660;53.288;14.666;2024-03-29T10:09:36;7.18;;;6.63;;
76733;SDS011;65660;53.288;14.666;2024-03-29T10:14:46;7.25;;;6.78;;
76733;SDS011;65660;53.288;14.666;2024-03-29T10:19:47;6.20;;;5.80;;
76733;SDS011;65660;53.288;14.666;2024-03-29T10:24:50;4.88;;;4.45;;
76733;SDS011;65660;53.288;14.666;2024-03-29T10:29:51;5.40;;;4.90;;
76733;SDS011;65660;53.288;14.666;2024-03-29T10:34:53;6.50;;;6.10;;
76733;SDS011;65660;53.288;14.666;2024-03-29T10:39:53;8.07;;;7.57;;
76733;SDS011;65660;53.288;14.666;2024-03-29T10:44:54;5.70;;;5.30;;
76733;SDS011;65660;53.288;14.666;2024-03-29T10:49:55;5.78;;;5.38;;
76733;SDS011;65660;53.288;14.666;2024-03-29T10:54:56;5.60;;;5.30;;
76733;SDS011;65660;53.288;14.666;2024-03-29T11:00:03;5.75;;;5.40;;
76733;SDS011;65660;53.288;14.666;2024-03-29T11:05:09;5.18;;;4.80;;
76733;SDS011;65660;53.288;14.666;2024-03-29T11:10:11;5.68;;;5.28;;
76733;SDS011;65660;53.288;14.666;2024-03-29T11:15:19;5.43;;;5.10;;
76733;SDS011;65660;53.288;14.666;2024-03-29T11:20:28;5.20;;;4.82;;
76733;SDS011;65660;53.288;14.666;2024-03-29T11:25:36;5.80;;;5.30;;
76733;SDS011;65660;53.288;14.666;2024-03-29T11:30:41;5.70;;;5.35;;
76733;SDS011;65660;53.288;14.666;2024-03-29T11:35:48;5.05;;;4.75;;
76733;SDS011;65660;53.288;14.666;2024-03-29T11:41:00;6.32;;;5.78;;
76733;SDS011;65660;53.288;14.666;2024-03-29T11:46:02;7.22;;;6.72;;
76733;SDS011;65660;53.288;14.666;2024-03-29T11:51:03;6.00;;;5.50;;
76733;SDS011;65660;53.288;14.666;2024-03-29T11:56:04;6.15;;;5.85;;
76733;SDS011;65660;53.288;14.666;2024-03-29T12:01:05;6.40;;;6.00;;
76733;SDS011;65660;53.288;14.666;2024-03-29T12:06:07;7.20;;;6.75;;
76733;SDS011;65660;53.288;14.666;2024-03-29T12:11:08;7.25;;;6.63;;
76733;SDS011;65660;53.288;14.666;2024-03-29T12:16:08;6.00;;;5.60;;
76733;SDS011;65660;53.288;14.666;2024-03-29T12:21:09;5.90;;;5.57;;
76733;SDS011;65660;53.288;14.666;2024-03-29T12:26:10;5.80;;;5.40;;
76733;SDS011;65660;53.288;14.666;2024-03-29T12:31:10;6.00;;;5.57;;
76733;SDS011;65660;53.288;14.666;2024-03-29T12:36:11;5.35;;;5.00;;
76733;SDS011;65660;53.288;14.666;2024-03-29T12:41:12;5.90;;;5.40;;
76733;SDS011;65660;53.288;14.666;2024-03-29T12:46:12;5.93;;;5.40;;
76733;SDS011;65660;53.288;14.666;2024-03-29T12:51:13;5.63;;;5.32;;
76733;SDS011;65660;53.288;14.666;2024-03-29T12:56:13;5.70;;;5.30;;
76733;SDS011;65660;53.288;14.666;2024-03-29T13:01:14;5.40;;;5.00;;
76733;SDS011;65660;53.288;14.666;2024-03-29T13:06:15;6.25;;;5.80;;
76733;SDS011;65660;53.288;14.666;2024-03-29T13:11:15;14.40;;;13.57;;
76733;SDS011;65660;53.288;14.666;2024-03-29T13:16:16;7.55;;;7.15;;
76733;SDS011;65660;53.288;14.666;2024-03-29T13:21:16;6.65;;;6.32;;
76733;SDS011;65660;53.288;14.666;2024-03-29T13:26:17;5.82;;;5.43;;
76733;SDS011;65660;53.288;14.666;2024-03-29T13:31:18;10.30;;;9.80;;
76733;SDS011;65660;53.288;14.666;2024-03-29T13:36:18;5.50;;;5.00;;
76733;SDS011;65660;53.288;14.666;2024-03-29T13:41:19;6.10;;;5.50;;
76733;SDS011;65660;53.288;14.666;2024-03-29T13:46:19;7.75;;;7.35;;
76733;SDS011;65660;53.288;14.666;2024-03-29T13:51:20;7.97;;;7.47;;
76733;SDS011;65660;53.288;14.666;2024-03-29T13:56:21;8.13;;;7.63;;
76733;SDS011;65660;53.288;14.666;2024-03-29T14:01:22;7.90;;;7.50;;
76733;SDS011;65660;53.288;14.666;2024-03-29T14:06:22;6.85;;;6.25;;
76733;SDS011;65660;53.288;14.666;2024-03-29T14:11:23;6.00;;;5.70;;
76733;SDS011;65660;53.288;14.666;2024-03-29T14:16:24;6.80;;;6.50;;
76733;SDS011;65660;53.288;14.666;2024-03-29T14:21:24;5.82;;;5.53;;
76733;SDS011;65660;53.288;14.666;2024-03-29T14:26:27;6.00;;;5.70;;
76733;SDS011;65660;53.288;14.666;2024-03-29T14:31:28;7.15;;;6.75;;
76733;SDS011;65660;53.288;14.666;2024-03-29T14:36:30;5.55;;;5.25;;
76733;SDS011;65660;53.288;14.666;2024-03-29T14:41:30;5.55;;;5.18;;
76733;SDS011;65660;53.288;14.666;2024-03-29T14:46:31;10.10;;;9.50;;
76733;SDS011;65660;53.288;14.666;2024-03-29T14:51:35;5.85;;;5.55;;
76733;SDS011;65660;53.288;14.666;2024-03-29T14:56:35;6.25;;;5.85;;
76733;SDS011;65660;53.288;14.666;2024-03-29T15:01:36;6.30;;;5.90;;
76733;SDS011;65660;53.288;14.666;2024-03-29T15:06:37;7.85;;;7.45;;
76733;SDS011;65660;53.288;14.666;2024-03-29T15:11:37;6.50;;;6.07;;
76733;SDS011;65660;53.288;14.666;2024-03-29T15:16:38;8.93;;;8.43;;
76733;SDS011;65660;53.288;14.666;2024-03-29T15:21:38;9.20;;;8.50;;
76733;SDS011;65660;53.288;14.666;2024-03-29T15:26:39;8.93;;;8.32;;
76733;SDS011;65660;53.288;14.666;2024-03-29T15:31:40;6.90;;;6.40;;
76733;SDS011;65660;53.288;14.666;2024-03-29T15:36:41;8.52;;;7.93;;
76733;SDS011;65660;53.288;14.666;2024-03-29T15:41:42;7.03;;;6.53;;
76733;SDS011;65660;53.288;14.666;2024-03-29T15:46:42;7.07;;;6.47;;
76733;SDS011;65660;53.288;14.666;2024-03-29T15:51:43;9.70;;;9.10;;
76733;SDS011;65660;53.288;14.666;2024-03-29T15:56:44;13.07;;;12.07;;
76733;SDS011;65660;53.288;14.666;2024-03-29T16:01:44;8.98;;;8.27;;
76733;SDS011;65660;53.288;14.666;2024-03-29T16:06:45;9.13;;;8.52;;
76733;SDS011;65660;53.288;14.666;2024-03-29T16:11:45;13.55;;;12.75;;
76733;SDS011;65660;53.288;14.666;2024-03-29T16:16:46;9.57;;;9.07;;
76733;SDS011;65660;53.288;14.666;2024-03-29T16:21:46;7.10;;;6.60;;
76733;SDS011;65660;53.288;14.666;2024-03-29T16:26:47;6.78;;;6.28;;
76733;SDS011;65660;53.288;14.666;2024-03-29T16:31:47;8.35;;;7.90;;
76733;SDS011;65660;53.288;14.666;2024-03-29T16:36:48;7.43;;;7.00;;
76733;SDS011;65660;53.288;14.666;2024-03-29T16:41:49;7.38;;;6.75;;
76733;SDS011;65660;53.288;14.666;2024-03-29T16:46:49;7.15;;;6.55;;
76733;SDS011;65660;53.288;14.666;2024-03-29T16:51:50;8.85;;;8.15;;
76733;SDS011;65660;53.288;14.666;2024-03-29T16:56:52;7.35;;;6.80;;
76733;SDS011;65660;53.288;14.666;2024-03-29T17:01:52;8.40;;;7.70;;
76733;SDS011;65660;53.288;14.666;2024-03-29T17:06:53;7.45;;;6.85;;
76733;SDS011;65660;53.288;14.666;2024-03-29T17:11:53;10.02;;;9.43;;
76733;SDS011;65660;53.288;14.666;2024-03-29T17:16:55;6.88;;;6.28;;
76733;SDS011;65660;53.288;14.666;2024-03-29T17:21:56;6.25;;;5.75;;
76733;SDS011;65660;53.288;14.666;2024-03-29T17:26:57;8.30;;;7.80;;
76733;SDS011;65660;53.288;14.666;2024-03-29T17:31:58;8.02;;;7.53;;
76733;SDS011;65660;53.288;14.666;2024-03-29T17:36:59;5.90;;;5.50;;
76733;SDS011;65660;53.288;14.666;2024-03-29T17:41:59;5.97;;;5.60;;
76733;SDS011;65660;53.288;14.666;2024-03-29T17:47:00;6.53;;;5.93;;
76733;SDS011;65660;53.288;14.666;2024-03-29T17:52:00;5.32;;;4.95;;
76733;SDS011;65660;53.288;14.666;2024-03-29T17:57:01;5.18;;;4.78;;
76733;SDS011;65660;53.288;14.666;2024-03-29T18:02:02;5.20;;;4.85;;
76733;SDS011;65660;53.288;14.666;2024-03-29T18:07:02;5.70;;;5.30;;
76733;SDS011;65660;53.288;14.666;2024-03-29T18:12:03;5.78;;;5.47;;
76733;SDS011;65660;53.288;14.666;2024-03-29T18:17:04;6.30;;;5.90;;
76733;SDS011;65660;53.288;14.666;2024-03-29T18:22:04;7.20;;;6.78;;
76733;SDS011;65660;53.288;14.666;2024-03-29T18:27:05;10.40;;;9.77;;
76733;SDS011;65660;53.288;14.666;2024-03-29T18:32:05;6.78;;;6.28;;
76733;SDS011;65660;53.288;14.666;2024-03-29T18:37:06;6.75;;;6.25;;
76733;SDS011;65660;53.288;14.666;2024-03-29T18:42:07;7.07;;;6.68;;
76733;SDS011;65660;53.288;14.666;2024-03-29T18:47:08;6.25;;;5.85;;
76733;SDS011;65660;53.288;14.666;2024-03-29T18:52:09;6.47;;;6.07;;
76733;SDS011;65660;53.288;14.666;2024-03-29T18:57:10;8.00;;;7.40;;
76733;SDS011;65660;53.288;14.666;2024-03-29T19:02:10;6.60;;;6.10;;
76733;SDS011;65660;53.288;14.666;2024-03-29T19:07:11;6.10;;;5.70;;
76733;SDS011;65660;53.288;14.666;2024-03-29T19:12:11;6.10;;;5.70;;
76733;SDS011;65660;53.288;14.666;2024-03-29T19:17:12;6.43;;;5.97;;
76733;SDS011;65660;53.288;14.666;2024-03-29T19:22:16;6.10;;;5.50;;
76733;SDS011;65660;53.288;14.666;2024-03-29T19:27:23;6.57;;;6.07;;
76733;SDS011;65660;53.288;14.666;2024-03-29T19:32:27;7.03;;;6.43;;
76733;SDS011;65660;53.288;14.666;2024-03-29T19:37:28;6.77;;;6.17;;
76733;SDS011;65660;53.288;14.666;2024-03-29T19:42:29;6.70;;;6.10;;
76733;SDS011;65660;53.288;14.666;2024-03-29T19:47:29;7.47;;;6.77;;
76733;SDS011;65660;53.288;14.666;2024-03-29T19:52:30;10.50;;;9.43;;
76733;SDS011;65660;53.288;14.666;2024-03-29T19:57:31;9.63;;;8.73;;
76733;SDS011;65660;53.288;14.666;2024-03-29T20:02:32;8.50;;;7.63;;
76733;SDS011;65660;53.288;14.666;2024-03-29T20:07:33;7.10;;;6.40;;
76733;SDS011;65660;53.288;14.666;2024-03-29T20:12:33;7.20;;;6.50;;
76733;SDS011;65660;53.288;14.666;2024-03-29T20:17:34;7.70;;;7.00;;
76733;SDS011;65660;53.288;14.666;2024-03-29T20:22:35;6.57;;;6.03;;
76733;SDS011;65660;53.288;14.666;2024-03-29T20:27:36;6.90;;;6.30;;
76733;SDS011;65660;53.288;14.666;2024-03-29T20:32:37;6.90;;;5.90;;
76733;SDS011;65660;53.288;14.666;2024-03-29T20:37:38;8.30;;;7.70;;
76733;SDS011;65660;53.288;14.666;2024-03-29T20:42:38;7.23;;;6.30;;
76733;SDS011;65660;53.288;14.666;2024-03-29T20:47:39;8.83;;;8.03;;
76733;SDS011;65660;53.288;14.666;2024-03-29T20:52:39;7.03;;;6.10;;
76733;SDS011;65660;53.288;14.666;2024-03-29T20:57:40;7.13;;;6.37;;
76733;SDS011;65660;53.288;14.666;2024-03-29T21:02:40;7.40;;;6.33;;
76733;SDS011;65660;53.288;14.666;2024-03-29T21:07:41;7.20;;;6.50;;
76733;SDS011;65660;53.288;14.666;2024-03-29T21:12:42;7.77;;;6.97;;
76733;SDS011;65660;53.288;14.666;2024-03-29T21:17:42;9.17;;;7.60;;
76733;SDS011;65660;53.288;14.666;2024-03-29T21:22:44;10.97;;;8.13;;
76733;SDS011;65660;53.288;14.666;2024-03-29T21:27:45;9.63;;;7.77;;
76733;SDS011;65660;53.288;14.666;2024-03-29T21:32:45;11.93;;;8.67;;
76733;SDS011;65660;53.288;14.666;2024-03-29T21:37:46;17.50;;;9.30;;
76733;SDS011;65660;53.288;14.666;2024-03-29T21:42:47;13.47;;;11.07;;
76733;SDS011;65660;53.288;14.666;2024-03-29T21:47:47;16.27;;;12.10;;
76733;SDS011;65660;53.288;14.666;2024-03-29T21:52:48;18.93;;;13.33;;
76733;SDS011;65660;53.288;14.666;2024-03-29T21:57:49;20.50;;;14.43;;
76733;SDS011;65660;53.288;14.666;2024-03-29T22:02:49;29.87;;;15.50;;
76733;SDS011;65660;53.288;14.666;2024-03-29T22:07:50;22.87;;;13.53;;
76733;SDS011;65660;53.288;14.666;2024-03-29T22:12:50;17.67;;;15.77;;
76733;SDS011;65660;53.288;14.666;2024-03-29T22:17:51;14.23;;;10.63;;
76733;SDS011;65660;53.288;14.666;2024-03-29T22:22:52;13.13;;;9.40;;
76733;SDS011;65660;53.288;14.666;2024-03-29T22:27:53;11.07;;;7.90;;
76733;SDS011;65660;53.288;14.666;2024-03-29T22:32:54;8.63;;;7.40;;
76733;SDS011;65660;53.288;14.666;2024-03-29T22:37:54;11.30;;;8.13;;
76733;SDS011;65660;53.288;14.666;2024-03-29T22:42:55;13.10;;;9.00;;
76733;SDS011;65660;53.288;14.666;2024-03-29T22:47:56;12.20;;;7.97;;
76733;SDS011;65660;53.288;14.666;2024-03-29T22:52:57;8.90;;;7.63;;
76733;SDS011;65660;53.288;14.666;2024-03-29T22:57:58;8.20;;;7.23;;
76733;SDS011;65660;53.288;14.666;2024-03-29T23:02:59;9.83;;;7.00;;
76733;SDS011;65660;53.288;14.666;2024-03-29T23:07:59;10.07;;;7.40;;
76733;SDS011;65660;53.288;14.666;2024-03-29T23:13:00;11.50;;;7.50;;
76733;SDS011;65660;53.288;14.666;2024-03-29T23:18:01;12.27;;;8.60;;
76733;SDS011;65660;53.288;14.666;2024-03-29T23:23:01;14.33;;;10.27;;
76733;SDS011;65660;53.288;14.666;2024-03-29T23:28:02;15.90;;;9.30;;
76733;SDS011;65660;53.288;14.666;2024-03-29T23:33:03;15.20;;;9.37;;
76733;SDS011;65660;53.288;14.666;2024-03-29T23:38:03;18.40;;;11.07;;
76733;SDS011;65660;53.288;14.666;2024-03-29T23:43:04;11.93;;;8.80;;
76733;SDS011;65660;53.288;14.666;2024-03-29T23:48:05;13.07;;;8.60;;
76733;SDS011;65660;53.288;14.666;2024-03-29T23:53:06;11.70;;;7.57;;
76733;SDS011;65660;53.288;14.666;2024-03-29T23:58:06;12.60;;;7.57;;
